Time;durP1;ratioP1;P1;durP2;ratioP2;P2;SDS_P1;SDS_P2;PMS_P1;PMS_P2;Temp;Humidity;BMP_temperature;BMP_pressure;BME280_temperature;BME280_humidity;BME280_pressure;Samples;Min_cycle;Max_cycle;Signal;HPM_P1;HPM_P2
2022/08/05 00:01:43;;;;;;;14.35;10.28;;;;;;;20.90;57.84;101260.04;1671402;83;21098;-84
2022/08/05 00:04:10;;;;;;;14.33;9.23;;;;;;;20.87;57.90;101256.50;1671651;83;21099;-84
2022/08/05 00:06:37;;;;;;;10.68;9.28;;;;;;;20.84;57.96;101253.87;1671943;83;21094;-84
2022/08/05 00:09:04;;;;;;;11.05;9.08;;;;;;;20.80;58.11;101253.02;1671645;84;21714;-84
2022/08/05 00:11:31;;;;;;;10.20;9.00;;;;;;;20.76;58.21;101260.18;1671552;84;21923;-84
2022/08/05 00:13:58;;;;;;;10.38;8.98;;;;;;;20.72;58.28;101257.11;1671631;84;21571;-84
2022/08/05 00:16:24;;;;;;;15.60;8.98;;;;;;;20.69;58.41;101257.13;1674132;83;21200;-84
2022/08/05 00:18:51;;;;;;;12.68;8.98;;;;;;;20.66;58.51;101251.78;1667460;84;21076;-84
2022/08/05 00:21:18;;;;;;;9.85;8.50;;;;;;;20.65;58.66;101250.48;1664331;84;21797;-84
2022/08/05 00:23:46;;;;;;;11.28;9.55;;;;;;;20.64;58.73;101249.58;1664695;86;21765;-92
2022/08/05 00:26:21;;;;;;;11.78;8.75;;;;;;;20.62;58.83;101246.03;1664946;86;21081;-93
2022/08/05 00:28:48;;;;;;;9.10;8.20;;;;;;;20.61;58.85;101247.37;1664577;84;21117;-84
2022/08/05 00:31:15;;;;;;;13.38;9.20;;;;;;;20.59;58.94;101251.39;1676444;83;21091;-83
2022/08/05 00:33:42;;;;;;;10.03;9.00;;;;;;;20.57;58.95;101245.14;1671443;83;21754;-83
2022/08/05 00:36:09;;;;;;;10.95;9.28;;;;;;;20.53;59.00;101244.73;1679003;83;21526;-83
2022/08/05 00:38:38;;;;;;;13.85;8.98;;;;;;;20.51;59.10;101250.09;1674430;83;21061;-83
2022/08/05 00:41:06;;;;;;;13.08;9.05;;;;;;;20.47;59.26;101247.47;1671678;84;21030;-84
2022/08/05 00:43:35;;;;;;;10.28;9.25;;;;;;;20.43;59.35;101250.61;1700245;83;21090;-84
2022/08/05 00:46:02;;;;;;;11.88;9.08;;;;;;;20.41;59.38;101246.19;1633184;85;21776;-84
2022/08/05 00:48:29;;;;;;;10.65;9.03;;;;;;;20.38;59.49;101245.73;1671628;84;21072;-83
2022/08/05 00:50:56;;;;;;;11.50;8.53;;;;;;;20.35;59.65;101244.45;1680772;83;21048;-83
2022/08/05 00:53:23;;;;;;;14.55;9.73;;;;;;;20.33;59.74;101243.58;1673120;84;21088;-83
2022/08/05 00:55:50;;;;;;;10.78;9.13;;;;;;;20.30;59.81;101248.48;1643237;84;21069;-83
2022/08/05 00:58:18;;;;;;;13.00;8.75;;;;;;;20.30;59.87;101247.14;1676342;84;22853;-83
2022/08/05 01:00:45;;;;;;;14.03;9.25;;;;;;;20.29;59.88;101244.05;1671564;84;21053;-83
2022/08/05 01:03:11;;;;;;;19.32;9.70;;;;;;;20.26;59.97;101249.86;1676458;83;21124;-83
2022/08/05 01:05:38;;;;;;;10.78;8.88;;;;;;;20.24;60.04;101241.84;1671505;84;21125;-83
2022/08/05 01:08:05;;;;;;;11.78;9.58;;;;;;;20.20;60.12;101248.12;1676263;83;21139;-83
2022/08/05 01:10:43;;;;;;;12.93;9.70;;;;;;;20.15;60.18;101244.58;1671351;83;21772;-83
2022/08/05 01:13:18;;;;;;;16.57;9.43;;;;;;;20.10;60.26;101241.95;1675643;83;21083;-83
2022/08/05 01:15:50;;;;;;;10.48;8.88;;;;;;;20.06;60.40;101245.52;1670957;84;21084;-83
2022/08/05 01:18:22;;;;;;;14.55;8.83;;;;;;;19.99;60.46;101238.00;1679385;83;21695;-83
2022/08/05 01:21:26;;;;;;;12.88;9.18;;;;;;;19.96;60.64;101239.34;1691942;84;21128;-83
2022/08/05 01:24:10;;;;;;;13.05;8.60;;;;;;;19.92;60.71;101239.39;1692150;83;21798;-83
2022/08/05 01:26:41;;;;;;;10.08;8.78;;;;;;;19.89;60.78;101232.72;1671308;83;21441;-83
2022/08/05 01:29:28;;;;;;;13.68;8.15;;;;;;;19.85;60.92;101229.17;1696183;82;21103;-84
2022/08/05 01:31:59;;;;;;;14.55;8.08;;;;;;;19.81;60.96;101230.97;1695265;84;21274;-83
2022/08/05 01:34:41;;;;;;;14.85;9.08;;;;;;;19.78;61.05;101228.76;1698067;83;21057;-83
2022/08/05 01:37:30;;;;;;;11.45;9.20;;;;;;;19.75;61.10;101227.00;1698019;84;21772;-83
2022/08/05 01:39:56;;;;;;;10.93;9.43;;;;;;;19.71;61.19;101219.87;1697687;84;21558;-83
2022/08/05 01:42:23;;;;;;;13.15;9.48;;;;;;;19.68;61.32;101223.00;1700775;84;21085;-83
2022/08/05 01:44:50;;;;;;;13.05;8.23;;;;;;;19.62;61.39;101220.80;1658348;85;21188;-83
2022/08/05 01:47:18;;;;;;;10.03;8.60;;;;;;;19.59;61.45;101216.80;1701506;84;21020;-84
2022/08/05 01:49:46;;;;;;;12.13;8.93;;;;;;;19.55;61.54;101227.06;1672364;85;21757;-84
2022/08/05 01:52:13;;;;;;;12.98;9.20;;;;;;;19.51;61.64;101223.09;1713927;82;21074;-92
2022/08/05 01:55:23;;;;;;;12.47;8.23;;;;;;;19.49;61.74;101223.55;1732803;82;21059;-92
2022/08/05 01:58:08;;;;;;;10.32;9.10;;;;;;;19.46;61.82;101226.22;1732635;82;21040;-92
2022/08/05 02:00:48;;;;;;;14.03;8.58;;;;;;;19.42;61.95;101224.88;1732475;82;21126;-91
2022/08/05 02:03:36;;;;;;;14.05;8.43;;;;;;;19.40;62.07;101227.13;1732228;82;21759;-92
2022/08/05 02:06:19;;;;;;;11.83;8.63;;;;;;;19.39;62.15;101232.05;1732466;82;21027;-91
2022/08/05 02:08:46;;;;;;;10.53;9.30;;;;;;;19.38;62.21;101230.25;1732706;82;21054;-91
2022/08/05 02:12:19;;;;;;;10.93;9.13;;;;;;;19.36;62.29;101222.70;1705522;82;21166;-92
2022/08/05 02:15:14;;;;;;;14.47;9.40;;;;;;;19.35;62.34;101224.91;1701511;84;21105;-91
2022/08/05 02:17:52;;;;;;;13.50;9.70;;;;;;;19.33;62.41;101217.36;1668199;86;21802;-92
2022/08/05 02:20:22;;;;;;;11.53;9.38;;;;;;;19.30;62.50;101220.94;1660739;86;21073;-92
2022/08/05 02:23:04;;;;;;;16.25;9.78;;;;;;;19.25;62.55;101210.72;1664876;85;21384;-92
2022/08/05 02:25:35;;;;;;;9.98;8.98;;;;;;;19.27;62.66;101216.05;1684647;85;21301;-92
2022/08/05 02:28:14;;;;;;;14.70;9.35;;;;;;;19.22;62.76;101218.30;1684909;85;21062;-92
2022/08/05 02:30:51;;;;;;;15.72;9.58;;;;;;;19.19;62.87;101212.08;1684830;85;22597;-92
2022/08/05 02:34:27;;;;;;;12.65;8.98;;;;;;;19.17;62.95;101211.20;1684701;85;21026;-92
2022/08/05 02:36:57;;;;;;;11.20;8.98;;;;;;;19.14;63.05;101205.41;1685040;85;21030;-91
2022/08/05 02:39:34;;;;;;;12.63;9.05;;;;;;;19.10;63.16;101199.64;1679509;85;21080;-91
2022/08/05 02:42:02;;;;;;;10.03;8.63;;;;;;;19.01;63.34;101193.91;1677049;85;21646;-91
2022/08/05 02:44:31;;;;;;;10.85;9.33;;;;;;;19.09;63.37;101210.31;1676893;85;21758;-92
2022/08/05 02:46:57;;;;;;;9.95;8.95;;;;;;;19.07;63.50;101214.34;1677157;85;21064;-83
2022/08/05 02:49:25;;;;;;;11.35;9.33;;;;;;;19.07;63.55;101216.10;1684312;84;21152;-87
2022/08/05 02:51:53;;;;;;;15.05;9.20;;;;;;;19.06;63.58;101207.67;1689107;84;21069;-92
2022/08/05 02:54:20;;;;;;;11.93;8.85;;;;;;;19.06;63.64;101209.02;1711815;83;21061;-91
2022/08/05 02:56:47;;;;;;;10.60;9.53;;;;;;;19.07;63.71;101206.77;1691754;84;21773;-91
2022/08/05 02:59:21;;;;;;;15.08;9.18;;;;;;;19.07;63.76;101206.77;1694567;84;21098;-91
2022/08/05 03:02:08;;;;;;;;;;;;;;;19.08;63.80;101207.22;1697201;84;21046;-91
2022/08/05 03:04:37;;;;;;;16.35;9.73;;;;;;;19.08;63.97;101205.89;1691472;84;20390;-91
2022/08/05 03:07:05;;;;;;;13.13;9.80;;;;;;;19.06;63.82;101200.55;1712228;82;21062;-90
2022/08/05 03:09:52;;;;;;;10.40;9.15;;;;;;;19.06;63.85;101201.00;1691560;84;22536;-91
2022/08/05 03:12:38;;;;;;;15.48;9.48;;;;;;;19.04;63.94;101197.00;1711972;83;21069;-92
2022/08/05 03:15:09;;;;;;;12.15;9.98;;;;;;;19.04;64.01;101200.55;1694245;84;21041;-92
2022/08/05 03:17:37;;;;;;;10.18;9.18;;;;;;;19.04;64.05;101195.21;1700318;83;21805;-92
2022/08/05 03:20:07;;;;;;;12.07;9.13;;;;;;;19.05;64.14;101194.80;1691222;84;21077;-91
2022/08/05 03:22:33;;;;;;;11.73;9.43;;;;;;;19.07;64.17;101193.00;1678703;85;21793;-92
2022/08/05 03:25:02;;;;;;;10.68;8.93;;;;;;;19.09;64.25;101194.30;1677961;85;21112;-91
2022/08/05 03:27:29;;;;;;;12.47;10.13;;;;;;;19.09;64.21;101189.88;1674997;85;21665;-92
2022/08/05 03:29:57;;;;;;;11.45;9.90;;;;;;;19.12;64.23;101191.64;1675389;84;21585;-91
2022/08/05 03:32:24;;;;;;;10.95;9.93;;;;;;;19.14;64.24;101196.52;1678131;84;21045;-91
2022/08/05 03:34:51;;;;;;;10.68;9.58;;;;;;;19.19;64.26;101192.95;1673282;85;21716;-91
2022/08/05 03:37:18;;;;;;;11.75;10.08;;;;;;;19.26;64.32;101196.49;1671145;84;21077;-92
2022/08/05 03:39:57;;;;;;;16.07;9.85;;;;;;;19.35;64.36;101196.46;1694895;84;21144;-91
2022/08/05 03:42:24;;;;;;;12.70;9.43;;;;;;;19.45;64.32;101199.97;1690764;82;21054;-91
2022/08/05 03:44:50;;;;;;;15.05;9.35;;;;;;;19.62;64.35;101202.10;1667478;85;21670;-92
2022/08/05 03:47:17;;;;;;;14.63;10.30;;;;;;;19.89;64.41;101200.20;1663427;86;21797;-92
2022/08/05 03:49:44;;;;;;;14.38;10.15;;;;;;;20.58;64.91;101197.45;1663752;86;21661;-92
2022/08/05 03:52:18;;;;;;;13.15;9.43;;;;;;;21.68;64.84;101190.00;1663413;86;21042;-92
2022/08/05 03:55:06;;;;;;;13.68;9.18;;;;;;;22.97;63.70;101189.66;1668239;85;21101;-92
2022/08/05 03:57:33;;;;;;;9.33;8.40;;;;;;;24.21;62.26;101181.19;1675281;85;21088;-92
2022/08/05 04:00:16;;;;;;;12.93;8.98;;;;;;;25.45;60.30;101176.08;1673653;85;21912;-92
2022/08/05 04:02:49;;;;;;;13.22;8.88;;;;;;;26.37;58.50;101178.55;1654973;86;21072;-92
2022/08/05 04:05:15;;;;;;;11.30;8.60;;;;;;;27.33;57.06;101185.55;1655228;86;21250;-92
2022/08/05 04:07:46;;;;;;;9.40;8.38;;;;;;;28.35;55.31;101178.31;1636374;86;21145;-92
2022/08/05 04:10:14;;;;;;;11.83;8.08;;;;;;;29.20;53.77;101185.48;1673375;85;21081;-93
2022/08/05 04:12:40;;;;;;;10.18;6.97;;;;;;;29.98;52.16;101180.42;1654805;84;21946;-93
2022/08/05 04:15:08;;;;;;;16.05;7.60;;;;;;;30.69;50.27;101185.47;1671596;84;21061;-92
2022/08/05 04:17:38;;;;;;;15.60;7.25;;;;;;;31.33;49.12;101182.05;1653585;86;21167;-92
2022/08/05 04:20:05;;;;;;;12.13;6.97;;;;;;;32.04;47.80;101183.55;1648344;85;21302;-90
2022/08/05 04:22:36;;;;;;;15.38;7.47;;;;;;;32.76;46.03;101177.01;1694183;84;21077;-94
2022/08/05 04:25:03;;;;;;;11.35;7.00;;;;;;;33.34;45.08;101182.05;1703467;83;21760;-92
2022/08/05 04:27:30;;;;;;;9.60;7.03;;;;;;;33.91;43.83;101178.36;1669037;84;21068;-90
2022/08/05 04:29:57;;;;;;;7.30;6.42;;;;;;;34.55;42.30;101174.49;1695447;84;21039;-90
2022/08/05 04:32:23;;;;;;;8.23;6.75;;;;;;;35.03;41.54;101170.69;1705050;83;21089;-91
2022/08/05 04:34:50;;;;;;;11.90;7.12;;;;;;;35.55;39.85;101174.75;1695819;82;21672;-89
2022/08/05 04:37:17;;;;;;;8.90;6.15;;;;;;;35.79;39.34;101176.19;1666928;84;21764;-90
2022/08/05 04:39:44;;;;;;;8.70;6.47;;;;;;;36.24;38.10;101175.59;1670939;83;21057;-90
2022/08/05 04:42:12;;;;;;;7.65;6.37;;;;;;;36.70;37.47;101177.04;1668671;84;21059;-85
2022/08/05 04:44:39;;;;;;;11.78;6.17;;;;;;;37.31;36.69;101178.63;1699640;82;21460;-87
2022/08/05 04:47:06;;;;;;;9.45;6.25;;;;;;;37.94;35.81;101177.58;1700695;82;21055;-82
2022/08/05 04:49:33;;;;;;;7.05;5.50;;;;;;;38.50;34.97;101179.25;1700777;82;21768;-85
2022/08/05 04:51:59;;;;;;;10.08;5.67;;;;;;;39.10;34.17;101186.44;1706360;82;21136;-84
2022/08/05 04:54:45;;;;;;;8.15;5.62;;;;;;;39.65;33.02;101180.07;1669974;84;21044;-93
2022/08/05 04:57:12;;;;;;;9.00;5.05;;;;;;;40.00;32.36;101176.45;1667981;85;21040;-85
2022/08/05 04:59:39;;;;;;;6.40;4.62;;;;;;;40.34;31.37;101173.30;1671833;83;21116;-84
2022/08/05 05:02:07;;;;;;;8.05;4.83;;;;;;;40.68;31.03;101179.24;1700410;82;21718;-90
2022/08/05 05:08:33;;;;;;;7.17;3.90;;;;;;;41.29;29.54;101178.45;1710666;82;21105;-84
2022/08/05 05:11:00;;;;;;;8.45;4.53;;;;;;;41.66;28.72;101180.34;1661730;83;21149;-85
2022/08/05 05:13:27;;;;;;;9.75;3.92;;;;;;;42.12;28.26;101182.09;1695976;83;21061;-84
2022/08/05 05:15:54;;;;;;;6.95;4.17;;;;;;;42.46;27.57;101186.00;1668581;85;22620;-85
2022/08/05 05:18:20;;;;;;;6.25;3.62;;;;;;;42.56;26.97;101185.44;1667543;85;21079;-84
2022/08/05 05:20:47;;;;;;;6.20;3.60;;;;;;;42.77;26.75;101179.53;1653307;85;21143;-84
2022/08/05 05:23:14;;;;;;;5.45;3.75;;;;;;;43.08;26.46;101185.98;1685706;83;21363;-84
2022/08/05 05:25:42;;;;;;;8.95;4.60;;;;;;;43.51;26.02;101191.06;1671073;84;21102;-84
2022/08/05 05:28:10;;;;;;;9.75;4.87;;;;;;;43.59;25.22;101188.35;1672116;84;22569;-84
2022/08/05 05:30:37;;;;;;;6.80;4.42;;;;;;;43.63;24.94;101191.12;1672858;83;21081;-84
2022/08/05 05:33:05;;;;;;;7.22;4.08;;;;;;;43.78;24.83;101189.14;1641578;85;21127;-84
2022/08/05 05:35:32;;;;;;;8.83;4.60;;;;;;;43.88;24.49;101180.99;1655564;85;21087;-84
2022/08/05 05:38:01;;;;;;;12.70;4.60;;;;;;;43.94;24.10;101184.99;1665245;85;21130;-84
2022/08/05 05:40:29;;;;;;;9.85;4.20;;;;;;;43.66;23.79;101180.21;1664178;85;21772;-84
2022/08/05 05:42:56;;;;;;;9.83;5.78;;;;;;;42.69;23.58;101178.11;1671588;85;21061;-84
2022/08/05 05:45:23;;;;;;;9.93;6.20;;;;;;;40.68;23.70;101178.34;1675222;85;21064;-84
2022/08/05 05:47:50;;;;;;;13.28;6.75;;;;;;;38.62;24.60;101172.70;1665431;85;21077;-84
2022/08/05 05:50:17;;;;;;;9.28;6.60;;;;;;;36.82;25.73;101178.44;1665605;84;21111;-84
2022/08/05 05:52:45;;;;;;;10.53;5.50;;;;;;;35.26;26.79;101181.00;1667161;85;22600;-84
2022/08/05 05:55:13;;;;;;;12.28;5.65;;;;;;;33.92;27.81;101176.03;1675721;85;21096;-84
2022/08/05 05:57:41;;;;;;;9.13;4.87;;;;;;;32.75;28.92;101182.05;1652012;85;21115;-84
2022/08/05 06:00:10;;;;;;;8.90;5.45;;;;;;;31.79;30.04;101184.04;1671986;85;21094;-83
2022/08/05 06:02:37;;;;;;;14.90;5.37;;;;;;;30.98;30.98;101181.25;1667949;84;21075;-84
2022/08/05 06:05:06;;;;;;;15.70;4.80;;;;;;;30.35;31.96;101186.76;1698712;83;21737;-83
2022/08/05 06:07:33;;;;;;;10.53;5.30;;;;;;;29.88;32.85;101183.66;1670051;85;21059;-83
2022/08/05 06:09:59;;;;;;;9.85;5.42;;;;;;;29.44;33.57;101181.62;1673926;85;21077;-84
2022/08/05 06:12:26;;;;;;;8.13;4.87;;;;;;;29.02;34.25;101187.19;1679762;84;21066;-83
2022/08/05 06:14:53;;;;;;;11.10;5.17;;;;;;;28.60;34.99;101182.22;1679833;85;21048;-84
2022/08/05 06:17:20;;;;;;;8.68;4.85;;;;;;;28.27;35.71;101185.41;1672075;85;21575;-83
2022/08/05 06:19:46;;;;;;;6.03;4.45;;;;;;;28.04;36.17;101182.77;1671038;84;21722;-83
2022/08/05 06:22:17;;;;;;;11.03;4.53;;;;;;;27.85;36.60;101184.83;1673112;84;21068;-83
2022/08/05 06:24:44;;;;;;;8.85;4.58;;;;;;;27.77;37.06;101177.98;1644534;85;21110;-83
2022/08/05 06:27:11;;;;;;;5.05;3.98;;;;;;;27.68;37.55;101177.87;1673237;83;21049;-83
2022/08/05 06:29:37;;;;;;;9.93;4.58;;;;;;;27.62;37.90;101174.06;1673328;84;22573;-83
2022/08/05 06:32:05;;;;;;;10.65;4.42;;;;;;;27.52;38.05;101176.25;1672975;83;21100;-83
2022/08/05 06:34:31;;;;;;;8.73;4.58;;;;;;;27.44;38.28;101181.06;1673253;83;21128;-83
2022/08/05 06:36:58;;;;;;;6.67;4.05;;;;;;;27.40;38.67;101169.95;1673425;84;21151;-84
2022/08/05 06:39:25;;;;;;;6.72;3.85;;;;;;;27.38;38.79;101171.84;1672950;84;21662;-83
2022/08/05 06:41:52;;;;;;;7.75;4.00;;;;;;;27.36;38.93;101166.97;1674545;83;21731;-84
2022/08/05 06:44:19;;;;;;;9.55;4.03;;;;;;;27.36;39.19;101170.55;1654850;83;21059;-83
2022/08/05 06:46:46;;;;;;;6.03;3.67;;;;;;;27.40;39.22;101171.31;1673603;83;21142;-83
2022/08/05 06:49:13;;;;;;;4.25;3.27;;;;;;;27.39;39.25;101170.44;1673598;84;21104;-83
2022/08/05 06:51:42;;;;;;;5.30;3.70;;;;;;;27.42;39.21;101163.54;1644270;85;38941;-83
2022/08/05 06:54:09;;;;;;;9.98;4.03;;;;;;;27.46;39.24;101169.27;1670674;83;21804;-83
2022/08/05 06:56:35;;;;;;;7.95;3.95;;;;;;;27.53;39.36;101168.53;1651340;85;21641;-84
2022/08/05 06:59:04;;;;;;;4.03;3.55;;;;;;;27.58;39.33;101167.89;1642936;85;21076;-84
2022/08/05 07:01:30;;;;;;;7.45;3.33;;;;;;;27.65;39.38;101168.55;1674770;84;21145;-83
2022/08/05 07:04:00;;;;;;;4.10;3.37;;;;;;;27.72;39.48;101161.92;1674632;84;21111;-83
2022/08/05 07:06:29;;;;;;;4.28;3.42;;;;;;;27.75;39.39;101156.88;1675862;85;21844;-92
2022/08/05 07:09:00;;;;;;;5.37;3.70;;;;;;;27.75;39.51;101151.00;1676257;85;21098;-92
2022/08/05 07:16:47;;;;;;;10.58;4.03;;;;;;;27.77;39.45;101151.81;1676051;85;21070;-92
2022/08/05 07:18:36;;;;;;;7.80;3.50;;;;;;;27.95;39.34;101146.16;1670965;83;21156;-83
2022/08/05 07:21:04;;;;;;;5.17;3.12;;;;;;;28.07;39.23;101138.00;1672693;83;22557;-84
2022/08/05 07:23:31;;;;;;;4.30;3.22;;;;;;;28.17;39.20;101133.08;1689885;82;21180;-83
2022/08/05 07:25:58;;;;;;;5.47;2.92;;;;;;;28.25;39.07;101132.30;1665826;84;21142;-84
2022/08/05 07:28:25;;;;;;;5.78;2.92;;;;;;;28.35;38.97;101130.94;1663922;86;21585;-84
2022/08/05 07:30:51;;;;;;;6.90;3.05;;;;;;;28.45;38.84;101132.28;1688206;82;21080;-84
2022/08/05 07:33:20;;;;;;;3.47;3.12;;;;;;;28.54;38.78;101132.88;1663060;84;22994;-84
2022/08/05 07:35:47;;;;;;;7.83;3.27;;;;;;;28.64;38.69;101127.00;1664156;84;21169;-83
2022/08/05 07:38:15;;;;;;;3.80;3.20;;;;;;;28.77;38.54;101125.94;1690573;83;21115;-83
2022/08/05 07:40:42;;;;;;;7.28;3.85;;;;;;;28.83;38.48;101124.78;1690971;83;21700;-83
2022/08/05 07:43:10;;;;;;;7.00;3.30;;;;;;;28.86;38.31;101124.17;1687465;84;21095;-83
2022/08/05 07:48:22;;;;;;;3.40;3.10;;;;;;;29.03;38.24;101115.27;1752546;81;22948;-84
2022/08/05 07:50:49;;;;;;;7.00;3.20;;;;;;;29.04;38.03;101117.04;1737386;81;21098;-84
2022/08/05 07:53:16;;;;;;;4.95;3.10;;;;;;;29.05;37.84;101117.42;1731985;81;21744;-84
2022/08/05 07:55:43;;;;;;;3.83;3.17;;;;;;;29.07;37.81;101116.91;1739752;81;21125;-84
2022/08/05 07:58:10;;;;;;;7.53;3.12;;;;;;;29.14;37.89;101118.87;1687013;84;21102;-84
2022/08/05 08:00:36;;;;;;;4.72;2.95;;;;;;;29.20;37.67;101119.06;1682082;83;21024;-84
2022/08/05 08:03:03;;;;;;;10.58;3.15;;;;;;;29.23;37.64;101118.92;1677759;83;21187;-93
2022/08/05 08:09:30;;;;;;;3.22;2.90;;;;;;;29.32;37.61;101122.56;1693767;84;21087;-93
2022/08/05 08:15:56;;;;;;;2.55;2.35;;;;;;;29.45;37.41;101121.02;1693638;84;21576;-93
2022/08/05 08:22:25;;;;;;;3.37;2.80;;;;;;;29.44;37.08;101111.11;1692899;84;21115;-92
2022/08/05 08:24:54;;;;;;;6.70;2.70;;;;;;;29.44;36.96;101119.73;1692967;84;21720;-92
2022/08/05 08:31:21;;;;;;;9.08;3.27;;;;;;;29.42;36.89;101115.73;1693457;84;21073;-94
2022/08/05 08:55:54;;;;;;;7.87;2.85;;;;;;;29.77;36.08;101098.70;1641900;86;21087;-93
2022/08/05 09:02:18;;;;;;;5.10;2.50;;;;;;;30.00;35.59;101096.20;1650910;86;21039;-91
2022/08/05 09:08:47;;;;;;;10.13;7.92;;;;;;;30.20;35.44;101095.16;1650558;87;21080;-93
2022/08/05 09:11:15;;;;;;;4.67;3.45;;;;;;;30.25;35.11;101091.73;1659479;85;21988;-83
2022/08/05 09:13:42;;;;;;;7.72;2.52;;;;;;;30.27;35.07;101084.87;1686984;83;21074;-84
2022/08/05 09:20:10;;;;;;;2.98;2.27;;;;;;;30.28;34.99;101088.88;1677792;84;21132;-84
2022/08/05 09:23:05;;;;;;;3.40;2.58;;;;;;;30.29;34.73;101078.88;1686904;83;21672;-84
2022/08/05 09:29:46;;;;;;;9.08;2.20;;;;;;;30.22;34.50;101080.56;1662591;86;21615;-93
2022/08/05 09:36:12;;;;;;;6.35;2.22;;;;;;;30.20;34.63;101070.27;1663369;86;21082;-92
2022/08/05 09:42:39;;;;;;;3.10;1.85;;;;;;;30.19;34.54;101070.34;1669811;85;21044;-93
2022/08/05 09:49:06;;;;;;;5.35;2.40;;;;;;;30.24;34.63;101054.21;1666887;85;21721;-93
2022/08/05 09:55:19;;;;;;;12.63;2.50;;;;;;;30.21;34.48;101054.36;1678796;84;21090;-93
2022/08/05 09:57:46;;;;;;;10.50;3.33;;;;;;;30.21;34.42;101054.84;1676789;85;21873;-84
2022/08/05 10:00:27;;;;;;;5.33;2.50;;;;;;;30.19;34.45;101048.13;1663746;84;21517;-84
2022/08/05 10:02:55;;;;;;;6.90;2.58;;;;;;;30.19;34.38;101038.63;1649887;85;21581;-84
2022/08/05 10:05:27;;;;;;;5.00;2.02;;;;;;;30.20;34.27;101044.94;1662168;84;21545;-84
2022/08/05 10:07:59;;;;;;;3.25;2.33;;;;;;;30.23;34.43;101039.35;1663455;84;21616;-85
2022/08/05 10:10:31;;;;;;;3.95;2.47;;;;;;;30.27;34.28;101038.71;1653848;85;21829;-84
2022/08/05 10:13:00;;;;;;;6.87;3.10;;;;;;;30.31;34.05;101030.80;1640048;85;21040;-84
2022/08/05 10:15:37;;;;;;;7.53;2.60;;;;;;;30.32;34.00;101022.61;1663948;85;21114;-84
2022/08/05 10:18:08;;;;;;;3.40;2.45;;;;;;;30.35;34.07;101028.34;1664633;85;21087;-84
2022/08/05 10:20:47;;;;;;;3.80;2.85;;;;;;;30.40;33.76;101027.63;1661345;85;21151;-84
2022/08/05 10:23:20;;;;;;;11.00;2.30;;;;;;;30.48;33.93;101028.56;1656257;85;21717;-84
2022/08/05 10:25:47;;;;;;;5.87;2.27;;;;;;;30.52;33.88;101009.77;1662056;85;21135;-84
2022/08/05 10:28:55;;;;;;;5.22;2.00;;;;;;;30.56;33.76;101014.98;1667363;85;21032;-93
2022/08/05 10:31:22;;;;;;;4.25;2.80;;;;;;;30.59;33.66;101002.56;1663409;85;21059;-84
2022/08/05 10:34:13;;;;;;;5.08;2.98;;;;;;;30.63;33.52;100999.20;1651965;85;21087;-94
2022/08/05 10:37:22;;;;;;;5.95;2.17;;;;;;;30.69;33.36;100999.34;1629797;87;23395;-92
2022/08/05 10:39:54;;;;;;;7.53;2.83;;;;;;;30.72;33.38;100996.46;1651033;86;21130;-92
2022/08/05 10:42:23;;;;;;;2.72;2.10;;;;;;;30.80;33.17;101000.52;1650900;86;21059;-92
2022/08/05 10:45:50;;;;;;;4.20;2.12;;;;;;;30.84;33.33;100999.87;1651074;86;21868;-93
2022/08/05 10:51:48;;;;;;;4.15;1.85;;;;;;;30.94;32.59;100988.89;1652345;85;22809;-83
2022/08/05 10:54:16;;;;;;;6.37;2.85;;;;;;;30.95;32.47;100982.50;1665293;84;21127;-84
2022/08/05 10:56:54;;;;;;;9.73;2.87;;;;;;;30.96;32.42;100979.30;1650143;84;21095;-84
2022/08/05 10:59:30;;;;;;;7.22;2.40;;;;;;;31.01;32.66;100989.44;1637123;86;21107;-84
2022/08/05 11:02:12;;;;;;;5.47;2.22;;;;;;;31.05;32.50;100981.98;1638972;86;21539;-83
2022/08/05 11:04:48;;;;;;;2.90;2.40;;;;;;;31.07;32.31;100978.69;1643097;86;22071;-84
2022/08/05 11:07:17;;;;;;;2.87;1.92;;;;;;;31.08;32.44;100974.98;1636851;86;21183;-84
2022/08/05 11:09:51;;;;;;;3.90;2.22;;;;;;;31.12;32.30;100980.18;1651817;84;21115;-84
2022/08/05 11:12:44;;;;;;;4.58;2.52;;;;;;;31.16;32.14;100980.39;1644271;85;21127;-84
2022/08/05 11:15:18;;;;;;;6.58;2.25;;;;;;;31.17;31.88;100976.69;1670726;84;21665;-83
2022/08/05 11:17:50;;;;;;;6.08;2.87;;;;;;;31.16;31.81;100968.16;1652411;85;22092;-83
2022/08/05 11:20:42;;;;;;;6.20;2.40;;;;;;;31.15;31.86;100965.52;1647365;86;21621;-84
2022/08/05 11:23:33;;;;;;;4.28;2.25;;;;;;;31.18;32.10;100971.66;1687866;83;21060;-84
2022/08/05 11:26:20;;;;;;;4.28;2.05;;;;;;;31.24;31.86;100969.56;1691067;82;21107;-83
2022/08/05 11:28:50;;;;;;;8.35;2.10;;;;;;;31.28;31.70;100961.11;1695727;83;21156;-83
2022/08/05 11:31:20;;;;;;;9.08;2.40;;;;;;;31.30;31.64;100957.82;1692622;83;21229;-83
2022/08/05 11:33:52;;;;;;;5.75;2.20;;;;;;;31.32;31.44;100958.60;1635364;85;21102;-84
2022/08/05 11:36:38;;;;;;;7.03;2.62;;;;;;;31.32;31.37;100950.44;1657577;84;21109;-85
2022/08/05 11:39:07;;;;;;;3.20;2.27;;;;;;;31.32;31.26;100950.44;1659815;85;21062;-84
2022/08/05 11:41:36;;;;;;;2.83;2.52;;;;;;;31.33;31.53;100954.06;1663843;84;21579;-84
2022/08/05 11:44:14;;;;;;;4.80;1.95;;;;;;;31.38;31.76;100954.64;1696473;83;21773;-83
2022/08/05 11:46:46;;;;;;;3.87;1.82;;;;;;;31.46;31.80;100951.01;1660724;85;21119;-84
2022/08/05 11:49:14;;;;;;;5.08;2.35;;;;;;;31.48;31.65;100949.10;1659655;84;21074;-84
2022/08/05 11:51:43;;;;;;;6.83;2.10;;;;;;;31.51;31.38;100942.09;1656647;85;21098;-84
2022/08/05 11:54:14;;;;;;;11.83;2.30;;;;;;;31.53;31.20;100944.73;1658885;85;21409;-84
2022/08/05 11:56:49;;;;;;;5.28;2.17;;;;;;;31.54;31.23;100941.92;1648338;84;22585;-84
2022/08/05 11:59:18;;;;;;;4.90;2.20;;;;;;;31.57;31.20;100935.41;1715534;81;21059;-84
2022/08/05 12:01:58;;;;;;;7.72;2.70;;;;;;;31.57;31.17;100936.77;1732182;82;21071;-84
2022/08/05 12:04:27;;;;;;;3.72;2.47;;;;;;;31.60;31.36;100932.52;1718586;82;21103;-84
2022/08/05 12:06:54;;;;;;;4.80;2.67;;;;;;;31.68;31.28;100932.05;1719401;82;21094;-84
2022/08/05 12:09:24;;;;;;;7.33;2.55;;;;;;;31.70;31.26;100934.19;1725543;82;21762;-84
2022/08/05 12:11:51;;;;;;;2.85;2.30;;;;;;;31.71;31.15;100935.46;1689440;83;21071;-84
2022/08/05 12:14:18;;;;;;;4.33;2.10;;;;;;;31.73;30.87;100932.66;1723088;82;21110;-83
2022/08/05 12:16:48;;;;;;;6.53;1.98;;;;;;;31.75;30.79;100925.27;1732442;82;21079;-84
2022/08/05 12:19:15;;;;;;;4.95;3.95;;;;;;;31.74;30.70;100922.14;1726043;82;21043;-84
2022/08/05 12:21:49;;;;;;;6.22;2.00;;;;;;;31.77;30.68;100913.80;1714658;82;22205;-84
2022/08/05 12:24:19;;;;;;;3.35;2.20;;;;;;;31.79;30.58;100914.58;1721390;82;21063;-84
2022/08/05 12:26:51;;;;;;;4.78;2.85;;;;;;;31.81;30.67;100910.41;1722819;82;21059;-84
2022/08/05 12:29:23;;;;;;;6.93;2.37;;;;;;;31.86;30.72;100905.56;1724472;82;21064;-84
2022/08/05 12:31:56;;;;;;;4.90;3.65;;;;;;;31.90;30.67;100907.12;1710962;82;21110;-84
2022/08/05 12:34:34;;;;;;;3.83;2.75;;;;;;;31.93;30.68;100908.30;1738936;82;21973;-84
2022/08/05 12:37:09;;;;;;;3.02;1.95;;;;;;;31.93;30.60;100899.64;1735746;82;21050;-84
2022/08/05 12:39:33;;;;;;;3.70;2.30;;;;;;;31.96;30.55;100896.70;1731989;81;21035;-84
2022/08/05 12:42:00;;;;;;;4.25;2.33;;;;;;;32.00;30.57;100906.92;1688995;83;21075;-84
2022/08/05 12:44:27;;;;;;;5.78;2.00;;;;;;;32.04;30.59;100897.64;1666001;85;22005;-83
2022/08/05 12:46:54;;;;;;;5.97;2.37;;;;;;;32.08;30.65;100897.84;1681664;84;21681;-84
2022/08/05 12:49:21;;;;;;;6.15;2.25;;;;;;;32.13;30.52;100896.17;1661393;85;21067;-84
2022/08/05 12:51:55;;;;;;;7.12;2.85;;;;;;;32.16;30.30;100901.43;1725835;82;21046;-84
2022/08/05 12:54:28;;;;;;;4.90;2.22;;;;;;;32.16;30.40;100900.94;1737537;82;21023;-84
2022/08/05 12:57:04;;;;;;;5.70;2.40;;;;;;;32.18;30.52;100909.02;1724804;81;21122;-84
2022/08/05 12:59:50;;;;;;;3.95;3.50;;;;;;;32.23;30.40;100904.63;1728447;81;21636;-84
2022/08/05 13:02:24;;;;;;;5.33;2.45;;;;;;;32.25;30.21;100901.34;1722860;81;21062;-83
2022/08/05 13:04:51;;;;;;;7.85;2.60;;;;;;;32.25;30.46;100902.22;1707627;81;21111;-84
2022/08/05 13:07:23;;;;;;;6.30;2.40;;;;;;;32.30;30.41;100901.44;1718374;81;22370;-84